createdAt,value
2023-04-13T00:01:27.683Z,0.82
2023-04-13T00:06:29.460Z,0.90
2023-04-13T00:11:31.960Z,1.08
2023-04-13T00:16:33.555Z,1.13
2023-04-13T00:21:35.055Z,1.00
2023-04-13T00:31:38.035Z,0.82
2023-04-13T00:36:39.493Z,0.90
2023-04-13T00:46:46.465Z,0.82
2023-04-13T00:51:48.494Z,1.00
2023-04-13T00:56:51.229Z,0.80
2023-04-13T01:01:56.819Z,1.00
2023-04-13T01:07:16.338Z,1.05
2023-04-13T01:12:24.744Z,0.80
2023-04-13T01:17:30.992Z,0.93
2023-04-13T01:22:35.726Z,0.65
2023-04-13T01:27:47.129Z,0.70
2023-04-13T01:32:51.576Z,0.73
2023-04-13T01:37:53.552Z,0.73
2023-04-13T01:42:59.213Z,0.45
2023-04-13T01:48:19.728Z,0.70
2023-04-13T01:53:37.470Z,0.60
2023-04-13T02:03:49.030Z,0.60
2023-04-13T02:08:52.524Z,0.60
2023-04-13T02:13:57.555Z,0.70
2023-04-13T02:19:00.040Z,0.50
2023-04-13T02:24:01.608Z,0.60
2023-04-13T02:29:03.147Z,0.50
2023-04-13T02:34:05.633Z,0.60
2023-04-13T02:39:07.960Z,0.60
2023-04-13T02:44:10.319Z,0.50
2023-04-13T02:49:21.532Z,1.00
2023-04-13T02:54:33.172Z,0.70
2023-04-13T02:59:34.672Z,0.63
2023-04-13T03:04:40.171Z,0.70
2023-04-13T03:09:42.918Z,0.50
2023-04-13T03:14:44.539Z,0.70
2023-04-13T03:19:47.452Z,0.80
2023-04-13T03:24:50.808Z,0.50
2023-04-13T03:29:59.284Z,0.68
2023-04-13T03:35:08.513Z,0.60
2023-04-13T03:40:11.375Z,0.30
2023-04-13T03:45:21.505Z,0.50
2023-04-13T03:50:24.356Z,1.10
2023-04-13T03:55:27.209Z,0.30
2023-04-13T04:00:31.794Z,0.57
2023-04-13T04:05:57.324Z,0.30
2023-04-13T04:11:01.532Z,0.45
2023-04-13T04:16:07.055Z,0.43
2023-04-13T04:21:13.179Z,0.30
2023-04-13T04:26:15.124Z,0.30
2023-04-13T04:31:25.108Z,0.32
2023-04-13T04:36:30.471Z,0.45
2023-04-13T04:41:37.459Z,0.40
2023-04-13T04:46:41.553Z,0.30
2023-04-13T04:51:47.638Z,0.50
2023-04-13T04:56:51.230Z,0.55
2023-04-13T05:01:54.601Z,0.75
2023-04-13T05:06:56.111Z,0.50
2023-04-13T05:11:59.737Z,0.68
2023-04-13T05:22:07.686Z,0.73
2023-04-13T05:27:17.404Z,0.60
2023-04-13T05:32:19.142Z,0.93
2023-04-13T05:37:22.542Z,0.70
2023-04-13T05:42:25.232Z,1.25
2023-04-13T05:47:28.902Z,0.65
2023-04-13T05:52:35.149Z,0.60
2023-04-13T05:57:37.574Z,1.00
2023-04-13T06:02:43.996Z,0.63
2023-04-13T06:07:48.393Z,0.50
2023-04-13T06:12:50.520Z,0.80
2023-04-13T06:17:55.640Z,0.52
2023-04-13T06:22:57.989Z,0.50
2023-04-13T06:28:02.277Z,0.47
2023-04-13T06:33:06.157Z,0.50
2023-04-13T06:38:09.260Z,0.50
2023-04-13T06:43:29.759Z,0.52
2023-04-13T06:48:50.469Z,0.63
2023-04-13T06:53:58.265Z,0.90
2023-04-13T06:59:02.661Z,0.60
2023-04-13T07:04:07.745Z,0.70
2023-04-13T07:09:10.021Z,0.82
2023-04-13T07:14:11.784Z,0.70
2023-04-13T07:19:14.043Z,0.70
2023-04-13T07:24:23.355Z,1.00
2023-04-13T07:29:25.977Z,0.50
2023-04-13T07:34:32.391Z,0.70
2023-04-13T07:39:35.211Z,0.75
2023-04-13T07:44:37.148Z,0.65
2023-04-13T07:49:39.599Z,0.65
2023-04-13T07:54:46.597Z,0.85
2023-04-13T07:59:49.254Z,0.50
2023-04-13T08:04:52.986Z,0.95
2023-04-13T08:10:00.391Z,0.70
2023-04-13T08:15:03.302Z,0.90
2023-04-13T08:20:08.867Z,1.40
2023-04-13T08:25:10.646Z,0.88
2023-04-13T08:30:12.691Z,0.70
2023-04-13T08:35:24.687Z,0.98
2023-04-13T08:40:27.219Z,0.57
2023-04-13T08:45:31.661Z,0.70
2023-04-13T08:50:33.523Z,0.60
2023-04-13T08:55:43.596Z,0.68
2023-04-13T09:00:49.968Z,0.60
2023-04-13T09:06:09.501Z,0.60
2023-04-13T09:11:11.098Z,0.60
2023-04-13T09:21:42.353Z,0.90
2023-04-13T09:26:46.458Z,0.95
2023-04-13T09:37:33.190Z,1.02
2023-04-13T09:42:36.069Z,0.50
2023-04-13T09:47:41.056Z,0.60
2023-04-13T09:52:42.729Z,1.20
2023-04-13T09:57:44.271Z,1.05
2023-04-13T10:02:48.068Z,1.00
2023-04-13T10:07:51.521Z,0.82
2023-04-13T10:12:56.348Z,0.52
2023-04-13T10:18:23.805Z,1.13
2023-04-13T10:23:27.243Z,1.02
2023-04-13T10:28:29.342Z,0.70
2023-04-13T10:33:31.563Z,0.93
2023-04-13T10:38:42.858Z,0.80
2023-04-13T10:44:25.166Z,0.63
2023-04-13T10:49:44.137Z,0.63
2023-04-13T10:54:45.657Z,0.98
2023-04-13T10:59:58.060Z,0.50
2023-04-13T11:05:01.125Z,1.10
2023-04-13T11:10:03.542Z,0.60
2023-04-13T11:15:06.404Z,1.02
2023-04-13T11:20:11.199Z,1.05
2023-04-13T11:25:13.106Z,0.65
2023-04-13T11:30:14.545Z,0.70
2023-04-13T11:35:16.580Z,0.60
2023-04-13T11:40:27.701Z,0.68
2023-04-13T11:45:30.226Z,0.55
2023-04-13T11:50:32.743Z,0.65
2023-04-13T11:55:52.172Z,0.75
2023-04-13T12:00:59.885Z,0.50
2023-04-13T12:06:04.495Z,0.55
2023-04-13T12:11:39.024Z,0.57
2023-04-13T12:16:55.898Z,0.80
2023-04-13T12:21:56.484Z,0.60
2023-04-13T12:27:17.856Z,0.80
2023-04-13T12:32:20.562Z,0.57
2023-04-13T12:37:22.019Z,0.65
2023-04-13T12:42:23.607Z,0.60
2023-04-13T12:47:25.944Z,0.57
2023-04-13T12:52:29.361Z,0.70
2023-04-13T12:57:30.978Z,0.60
2023-04-13T13:02:32.733Z,0.93
2023-04-13T13:07:34.225Z,1.13
2023-04-13T13:12:35.749Z,0.60
2023-04-13T13:17:40.865Z,0.70
2023-04-13T13:22:42.483Z,0.65
2023-04-13T13:57:08.826Z,0.90
2023-04-13T14:08:17.309Z,0.60
2023-04-13T14:13:31.430Z,0.63
2023-04-13T14:19:05.379Z,0.65
2023-04-13T14:24:32.683Z,0.63
2023-04-13T14:37:48.735Z,0.60
2023-04-13T14:43:39.877Z,1.10
2023-04-13T14:48:46.408Z,0.88
2023-04-13T14:54:25.607Z,0.60
2023-04-13T15:04:29.717Z,0.60
2023-04-13T15:09:32.472Z,0.90
2023-04-13T15:14:33.953Z,1.10
2023-04-13T15:19:36.230Z,1.13
2023-04-13T15:24:37.718Z,0.60
2023-04-13T15:29:39.199Z,0.57
2023-04-13T15:34:40.758Z,0.60
2023-04-13T15:39:42.238Z,0.55
2023-04-13T15:44:43.701Z,0.50
2023-04-13T15:49:45.265Z,0.82
2023-04-13T15:54:46.960Z,0.55
2023-04-13T15:59:48.459Z,0.77
2023-04-13T16:04:50.926Z,0.47
2023-04-13T16:09:58.406Z,1.00
2023-04-13T16:15:03.829Z,0.65
2023-04-13T16:20:11.116Z,0.77
2023-04-13T16:25:15.207Z,0.60
2023-04-13T16:30:19.984Z,0.60
2023-04-13T16:35:21.466Z,0.60
2023-04-13T16:40:23.526Z,0.80
2023-04-13T16:45:25.007Z,0.70
2023-04-13T16:50:30.346Z,0.70
2023-04-13T16:55:33.265Z,0.73
2023-04-13T17:00:35.798Z,0.80
2023-04-13T17:05:37.379Z,0.70
2023-04-13T17:10:38.860Z,0.50
2023-04-13T17:15:40.511Z,0.43
2023-04-13T17:20:42.086Z,0.70
2023-04-13T17:25:43.614Z,0.52
2023-04-13T17:30:45.683Z,0.65
2023-04-13T17:35:52.837Z,0.70
2023-04-13T17:40:54.267Z,1.60
2023-04-13T17:45:55.721Z,4.30
2023-04-13T17:50:57.137Z,9.73
2023-04-13T17:55:58.614Z,11.25
2023-04-13T18:01:06.948Z,2.30
2023-04-13T18:06:08.541Z,2.92
2023-04-13T18:11:09.971Z,1.20
2023-04-13T18:16:14.100Z,0.80
2023-04-13T18:21:17.919Z,0.90
2023-04-13T18:26:19.672Z,0.82
2023-04-13T18:31:21.435Z,0.80
2023-04-13T18:36:24.560Z,1.40
2023-04-13T18:41:25.988Z,2.03
2023-04-13T18:46:27.841Z,1.55
2023-04-13T18:51:30.784Z,1.17
2023-04-13T19:03:29.125Z,1.33
2023-04-13T19:08:30.718Z,1.30
2023-04-13T19:13:32.150Z,1.10
2023-04-13T19:31:18.276Z,1.40
2023-04-13T19:36:19.752Z,1.08
2023-04-13T19:41:21.290Z,1.33
2023-04-13T19:46:22.757Z,1.27
2023-04-13T19:51:32.779Z,1.00
2023-04-13T19:56:34.556Z,1.50
2023-04-13T20:01:36.090Z,1.42
2023-04-13T20:06:37.636Z,1.70
2023-04-13T20:11:41.630Z,1.23
2023-04-13T20:16:43.118Z,1.00
2023-04-13T20:21:46.472Z,1.20
2023-04-13T20:26:47.967Z,1.00
2023-04-13T20:31:49.670Z,1.02
2023-04-13T20:36:51.347Z,1.98
2023-04-13T20:41:55.836Z,1.45
2023-04-13T20:46:57.504Z,1.45
2023-04-13T20:52:02.013Z,1.00
2023-04-13T20:57:03.710Z,1.30
2023-04-13T21:02:05.492Z,2.00
2023-04-13T21:12:33.358Z,1.80
2023-04-13T21:18:00.596Z,3.20
2023-04-13T21:23:02.052Z,2.25
2023-04-13T21:33:04.912Z,3.45
2023-04-13T21:38:06.404Z,2.38
2023-04-13T21:43:07.830Z,2.90
2023-04-13T21:53:10.688Z,2.33
2023-04-13T21:58:12.149Z,2.35
2023-04-13T22:08:15.250Z,1.92
2023-04-13T22:18:18.161Z,1.80
2023-04-13T22:23:19.579Z,1.50
2023-04-13T22:28:21.002Z,1.92
2023-04-13T22:38:23.818Z,2.20
2023-04-13T22:48:28.928Z,3.17
2023-04-13T22:53:31.017Z,4.40
2023-04-13T22:58:32.469Z,3.17
2023-04-13T23:08:35.432Z,3.25
2023-04-13T23:13:36.932Z,3.58
2023-04-13T23:23:50.119Z,2.60
2023-04-13T23:28:52.147Z,2.80
2023-04-13T23:33:54.976Z,2.97
2023-04-13T23:38:56.903Z,3.20
2023-04-13T23:43:58.616Z,2.78
2023-04-13T23:49:00.247Z,2.00
2023-04-13T23:59:28.695Z,3.00
